createdAt,value
2023-03-17T00:00:49.432Z,12.16
2023-03-17T00:03:26.939Z,12.14
2023-03-17T00:05:54.943Z,12.13
2023-03-17T00:08:28.360Z,12.11
2023-03-17T00:10:56.212Z,12.07
2023-03-17T00:13:23.928Z,12.04
2023-03-17T00:15:58.806Z,12.00
2023-03-17T00:18:25.857Z,11.95
2023-03-17T00:20:53.465Z,11.93
2023-03-17T00:23:25.327Z,11.89
2023-03-17T00:25:54.062Z,11.85
2023-03-17T00:28:25.452Z,11.82
2023-03-17T00:31:01.559Z,11.76
2023-03-17T00:33:32.977Z,11.75
2023-03-17T00:36:01.204Z,11.73
2023-03-17T00:38:28.071Z,11.73
2023-03-17T00:40:55.150Z,11.70
2023-03-17T00:43:21.847Z,11.67
2023-03-17T00:45:49.387Z,11.66
2023-03-17T00:48:21.654Z,11.62
2023-03-17T00:50:50.462Z,11.59
2023-03-17T00:53:23.180Z,11.57
2023-03-17T00:55:50.124Z,11.51
2023-03-17T00:58:28.698Z,11.48
2023-03-17T01:00:56.585Z,11.44
2023-03-17T01:03:23.876Z,11.39
2023-03-17T01:05:54.113Z,11.36
2023-03-17T01:08:23.632Z,11.33
2023-03-17T01:10:50.368Z,11.31
2023-03-17T01:13:17.168Z,11.28
2023-03-17T01:15:50.333Z,11.28
2023-03-17T01:18:21.246Z,11.27
2023-03-17T01:20:48.509Z,11.23
2023-03-17T01:23:15.526Z,11.20
2023-03-17T01:25:44.544Z,11.19
2023-03-17T01:28:18.389Z,11.18
2023-03-17T01:30:46.923Z,11.16
2023-03-17T01:33:14.565Z,11.17
2023-03-17T01:35:43.875Z,11.17
2023-03-17T01:38:11.485Z,11.17
2023-03-17T01:40:49.405Z,11.16
2023-03-17T01:43:24.694Z,11.15
2023-03-17T01:46:30.265Z,11.11
2023-03-17T01:49:19.270Z,11.04
2023-03-17T01:51:58.875Z,10.99
2023-03-17T01:54:39.948Z,10.97
2023-03-17T01:57:21.331Z,10.92
2023-03-17T01:59:57.545Z,10.89
2023-03-17T02:02:30.843Z,10.86
2023-03-17T02:04:58.840Z,10.85
2023-03-17T02:07:27.479Z,10.83
2023-03-17T02:09:56.976Z,10.82
2023-03-17T02:12:25.357Z,10.82
2023-03-17T02:14:53.200Z,10.81
2023-03-17T02:17:22.884Z,10.81
2023-03-17T02:19:50.379Z,10.80
2023-03-17T02:22:19.599Z,10.80
2023-03-17T02:24:53.177Z,10.75
2023-03-17T02:27:41.786Z,10.71
2023-03-17T02:30:14.970Z,10.67
2023-03-17T02:32:42.002Z,10.69
2023-03-17T02:35:09.534Z,10.68
2023-03-17T02:37:36.486Z,10.69
2023-03-17T02:40:05.753Z,10.69
2023-03-17T02:42:35.682Z,10.71
2023-03-17T02:45:02.619Z,10.68
2023-03-17T02:47:29.371Z,10.68
2023-03-17T02:49:56.662Z,10.67
2023-03-17T02:52:23.370Z,10.65
2023-03-17T02:54:50.179Z,10.66
2023-03-17T02:57:17.245Z,10.64
2023-03-17T02:59:44.136Z,10.66
2023-03-17T03:02:11.559Z,10.65
2023-03-17T03:04:38.345Z,10.65
2023-03-17T03:07:05.606Z,10.66
2023-03-17T03:09:32.360Z,10.66
2023-03-17T03:11:59.114Z,10.70
2023-03-17T03:14:25.970Z,10.69
2023-03-17T03:16:52.690Z,10.71
2023-03-17T03:19:19.429Z,10.69
2023-03-17T03:21:46.318Z,10.68
2023-03-17T03:24:13.217Z,10.67
2023-03-17T03:26:39.955Z,10.64
2023-03-17T03:29:06.788Z,10.64
2023-03-17T03:31:33.727Z,10.63
2023-03-17T03:34:00.874Z,10.62
2023-03-17T03:36:27.711Z,10.59
2023-03-17T03:38:54.489Z,10.58
2023-03-17T03:41:21.325Z,10.58
2023-03-17T03:43:48.175Z,10.58
2023-03-17T03:46:15.664Z,10.59
2023-03-17T03:48:42.532Z,10.59
2023-03-17T03:51:09.243Z,10.60
2023-03-17T03:53:36.079Z,10.61
2023-03-17T03:56:02.890Z,10.61
2023-03-17T03:58:29.666Z,10.59
2023-03-17T04:00:56.888Z,10.60
2023-03-17T04:03:23.766Z,10.57
2023-03-17T04:05:50.537Z,10.56
2023-03-17T04:08:17.336Z,10.53
2023-03-17T04:10:44.506Z,10.51
2023-03-17T04:13:11.259Z,10.49
2023-03-17T04:15:38.036Z,10.47
2023-03-17T04:18:05.263Z,10.46
2023-03-17T04:20:32.540Z,10.41
2023-03-17T04:22:59.469Z,10.35
2023-03-17T04:25:26.290Z,10.32
2023-03-17T04:27:53.028Z,10.25
2023-03-17T04:30:19.950Z,10.21
2023-03-17T04:32:46.821Z,10.18
2023-03-17T04:35:20.736Z,10.12
2023-03-17T04:37:48.470Z,10.09
2023-03-17T04:40:17.014Z,10.04
2023-03-17T04:42:43.795Z,10.01
2023-03-17T04:45:15.450Z,10.23
2023-03-17T04:47:42.570Z,10.30
2023-03-17T04:50:10.633Z,10.20
2023-03-17T04:52:37.858Z,10.13
2023-03-17T04:55:08.220Z,10.13
2023-03-17T04:57:36.053Z,10.14
2023-03-17T05:00:07.197Z,10.17
2023-03-17T05:02:34.181Z,10.19
2023-03-17T05:05:01.105Z,10.23
2023-03-17T05:07:27.838Z,10.24
2023-03-17T05:09:54.556Z,10.26
2023-03-17T05:12:21.299Z,10.27
2023-03-17T05:14:48.126Z,10.29
2023-03-17T05:17:15.230Z,10.29
2023-03-17T05:19:42.447Z,10.29
2023-03-17T05:22:09.205Z,10.29
2023-03-17T05:24:36.133Z,10.31
2023-03-17T05:27:02.957Z,10.30
2023-03-17T05:29:30.098Z,10.31
2023-03-17T05:31:56.888Z,10.33
2023-03-17T05:34:23.626Z,10.33
2023-03-17T05:36:50.468Z,10.35
2023-03-17T05:39:17.488Z,10.39
2023-03-17T05:41:44.285Z,10.38
2023-03-17T05:44:11.006Z,10.41
2023-03-17T05:46:37.732Z,10.41
2023-03-17T05:49:04.914Z,10.43
2023-03-17T05:51:32.141Z,10.45
2023-03-17T05:53:59.615Z,10.45
2023-03-17T05:56:33.365Z,10.47
2023-03-17T05:59:03.771Z,10.46
2023-03-17T06:01:31.621Z,10.48
2023-03-17T06:03:58.773Z,10.51
2023-03-17T06:06:25.867Z,10.54
2023-03-17T06:08:53.122Z,10.59
2023-03-17T06:11:21.552Z,10.65
2023-03-17T06:13:49.161Z,10.69
2023-03-17T06:16:16.597Z,10.75
2023-03-17T06:18:45.974Z,10.79
2023-03-17T06:21:14.021Z,10.80
2023-03-17T06:23:41.238Z,10.83
2023-03-17T06:26:08.984Z,10.86
2023-03-17T06:28:35.878Z,10.90
2023-03-17T06:31:04.632Z,10.95
2023-03-17T06:33:32.693Z,11.00
2023-03-17T06:36:00.587Z,11.02
2023-03-17T06:38:28.198Z,11.06
2023-03-17T06:40:55.209Z,11.12
2023-03-17T06:43:24.690Z,11.18
2023-03-17T06:45:52.526Z,11.24
2023-03-17T06:48:20.163Z,11.28
2023-03-17T06:50:50.257Z,11.36
2023-03-17T06:53:17.533Z,11.45
2023-03-17T06:55:45.147Z,11.56
2023-03-17T06:58:13.566Z,11.72
2023-03-17T07:00:40.497Z,11.88
2023-03-17T07:03:07.876Z,12.08
2023-03-17T07:05:35.071Z,12.31
2023-03-17T07:08:01.999Z,12.56
2023-03-17T07:10:30.272Z,12.85
2023-03-17T07:12:59.065Z,13.20
2023-03-17T07:15:27.049Z,13.59
2023-03-17T07:17:54.849Z,14.02
2023-03-17T07:20:23.473Z,14.44
2023-03-17T07:22:52.177Z,14.86
2023-03-17T07:25:20.209Z,15.32
2023-03-17T07:27:48.091Z,15.75
2023-03-17T07:30:19.784Z,16.19
2023-03-17T07:32:49.520Z,16.55
2023-03-17T07:35:18.189Z,16.85
2023-03-17T07:37:47.879Z,17.09
2023-03-17T07:40:15.775Z,17.28
2023-03-17T07:42:43.863Z,17.39
2023-03-17T07:45:14.118Z,17.50
2023-03-17T07:47:44.862Z,17.62
2023-03-17T07:50:13.094Z,17.70
2023-03-17T07:52:42.376Z,17.78
2023-03-17T07:55:13.379Z,17.86
2023-03-17T07:57:42.115Z,17.94
2023-03-17T08:00:15.045Z,18.05
2023-03-17T08:02:44.895Z,18.20
2023-03-17T08:05:15.811Z,18.42
2023-03-17T08:07:44.262Z,18.66
2023-03-17T08:10:15.886Z,18.95
2023-03-17T08:12:43.853Z,19.24
2023-03-17T08:15:12.096Z,19.50
2023-03-17T08:17:40.541Z,19.74
2023-03-17T08:20:09.985Z,19.90
2023-03-17T08:22:39.757Z,20.01
2023-03-17T08:25:09.909Z,20.10
2023-03-17T08:27:37.750Z,20.18
2023-03-17T08:30:06.495Z,20.27
2023-03-17T08:32:34.084Z,20.40
2023-03-17T08:35:01.671Z,20.55
2023-03-17T08:37:29.399Z,20.78
2023-03-17T08:40:01.526Z,21.02
2023-03-17T08:42:32.620Z,21.28
2023-03-17T08:45:00.164Z,21.60
2023-03-17T08:47:35.313Z,22.02
2023-03-17T08:50:05.463Z,22.56
2023-03-17T08:52:33.046Z,23.05
2023-03-17T08:55:01.109Z,23.55
2023-03-17T08:57:29.225Z,24.00
2023-03-17T08:59:57.062Z,24.35
2023-03-17T09:02:24.799Z,24.55
2023-03-17T09:04:53.208Z,24.61
2023-03-17T09:07:20.370Z,24.59
2023-03-17T09:09:47.667Z,24.54
2023-03-17T09:12:14.513Z,24.45
2023-03-17T09:21:58.135Z,24.64
2023-03-17T09:24:25.598Z,24.95
2023-03-17T09:26:53.035Z,25.24
2023-03-17T09:29:20.484Z,25.50
2023-03-17T09:31:50.825Z,25.72
2023-03-17T09:34:18.642Z,25.89
2023-03-17T09:36:45.613Z,25.94
2023-03-17T09:39:12.622Z,25.91
2023-03-17T09:42:00.967Z,25.80
2023-03-17T09:44:51.097Z,25.62
2023-03-17T09:47:42.951Z,25.51
2023-03-17T09:50:19.216Z,25.46
2023-03-17T09:52:46.091Z,25.37
2023-03-17T09:55:24.977Z,25.33
2023-03-17T09:57:54.758Z,25.38
2023-03-17T10:00:29.356Z,25.51
2023-03-17T10:03:08.031Z,25.64
2023-03-17T10:06:52.943Z,25.67
2023-03-17T10:09:44.092Z,25.72
2023-03-17T10:12:26.203Z,25.92
2023-03-17T10:17:35.620Z,26.93
2023-03-17T10:20:17.430Z,27.59
2023-03-17T10:22:53.105Z,28.32
2023-03-17T10:25:29.504Z,28.95
2023-03-17T10:28:06.994Z,29.54
2023-03-17T10:30:35.475Z,30.17
2023-03-17T10:33:07.232Z,30.68
2023-03-17T10:35:36.622Z,31.17
2023-03-17T10:38:19.549Z,31.52
2023-03-17T10:41:03.579Z,31.86
2023-03-17T10:43:39.719Z,32.14
2023-03-17T10:46:18.908Z,32.41
2023-03-17T10:49:11.803Z,32.65
2023-03-17T10:51:40.588Z,32.83
2023-03-17T10:54:17.861Z,32.88
2023-03-17T10:56:50.052Z,32.88
2023-03-17T10:59:37.507Z,32.89
2023-03-17T11:02:25.700Z,32.86
2023-03-17T11:05:22.947Z,32.70
2023-03-17T11:07:56.859Z,32.57
2023-03-17T11:10:27.956Z,32.48
2023-03-17T11:13:02.704Z,32.50
2023-03-17T11:15:40.480Z,32.56
2023-03-17T11:18:27.033Z,32.56
2023-03-17T11:21:09.951Z,32.60
2023-03-17T11:23:53.438Z,32.60
2023-03-17T11:26:57.526Z,32.37
2023-03-17T11:29:36.579Z,32.20
2023-03-17T11:32:28.238Z,31.90
2023-03-17T11:35:46.698Z,31.45
2023-03-17T11:38:30.983Z,31.08
2023-03-17T11:41:21.893Z,30.73
2023-03-17T11:44:28.894Z,30.28
2023-03-17T11:47:21.879Z,29.77
2023-03-17T11:50:23.536Z,29.33
2023-03-17T11:53:22.023Z,28.99
2023-03-17T11:56:04.223Z,28.75
2023-03-17T11:58:45.516Z,28.51
2023-03-17T12:01:27.182Z,28.33
2023-03-17T12:05:05.864Z,28.06
2023-03-17T12:07:55.248Z,27.91
2023-03-17T12:10:54.770Z,27.68
2023-03-17T12:13:43.578Z,27.56
2023-03-17T12:16:23.063Z,27.47
2023-03-17T12:19:33.529Z,27.34
2023-03-17T12:22:17.119Z,27.24
2023-03-17T12:25:12.856Z,27.18
2023-03-17T12:27:53.997Z,27.13
2023-03-17T12:30:33.605Z,27.14
2023-03-17T12:33:20.395Z,27.11
2023-03-17T12:35:48.252Z,27.11
2023-03-17T12:38:35.989Z,27.12
2023-03-17T12:42:00.033Z,27.18
2023-03-17T12:44:43.770Z,27.25
2023-03-17T12:48:04.830Z,27.39
2023-03-17T12:51:06.951Z,27.48
2023-03-17T12:53:37.876Z,27.55
2023-03-17T12:56:26.436Z,27.64
2023-03-17T12:59:19.018Z,27.68
2023-03-17T13:02:11.080Z,27.72
2023-03-17T13:04:39.055Z,27.72
2023-03-17T13:07:23.711Z,27.76
2023-03-17T13:10:13.798Z,27.79
2023-03-17T13:12:45.245Z,27.83
2023-03-17T13:15:47.177Z,27.88
2023-03-17T13:18:17.380Z,27.82
2023-03-17T13:20:56.798Z,27.73
2023-03-17T13:23:47.474Z,27.67
2023-03-17T13:26:42.775Z,27.67
2023-03-17T13:29:38.716Z,27.68
2023-03-17T13:32:27.140Z,27.66
2023-03-17T13:35:15.924Z,27.63
2023-03-17T13:38:03.147Z,27.52
2023-03-17T13:40:59.380Z,27.50
2023-03-17T13:44:26.689Z,27.47
2023-03-17T13:46:54.792Z,27.52
2023-03-17T13:49:32.278Z,27.60
2023-03-17T13:52:17.787Z,27.65
2023-03-17T13:54:59.869Z,27.75
2023-03-17T13:57:39.522Z,27.83
2023-03-17T14:00:26.440Z,27.86
2023-03-17T14:03:13.375Z,27.89
2023-03-17T14:05:43.003Z,27.92
2023-03-17T14:08:38.610Z,27.86
2023-03-17T14:11:26.763Z,27.79
2023-03-17T14:13:59.954Z,27.72
2023-03-17T14:16:54.164Z,27.67
2023-03-17T14:19:29.800Z,27.61
2023-03-17T14:22:18.255Z,27.55
2023-03-17T14:24:46.522Z,27.52
2023-03-17T14:27:15.628Z,27.52
2023-03-17T14:29:43.567Z,27.48
2023-03-17T14:32:18.805Z,27.43
2023-03-17T14:34:59.002Z,27.31
2023-03-17T14:37:28.489Z,27.20
2023-03-17T14:39:58.074Z,27.08
2023-03-17T14:42:31.507Z,26.92
2023-03-17T14:45:27.061Z,26.68
2023-03-17T14:47:54.899Z,26.49
2023-03-17T14:50:31.919Z,26.31
2023-03-17T14:53:02.494Z,26.14
2023-03-17T14:55:43.609Z,25.90
2023-03-17T14:58:25.343Z,25.59
2023-03-17T15:01:08.414Z,25.34
2023-03-17T15:03:40.955Z,25.13
2023-03-17T15:06:29.996Z,24.93
2023-03-17T15:09:04.532Z,24.78
2023-03-17T15:11:44.123Z,24.56
2023-03-17T15:14:31.902Z,24.33
2023-03-17T15:17:02.709Z,24.09
2023-03-17T15:19:41.327Z,23.82
2023-03-17T15:22:41.410Z,23.48
2023-03-17T15:25:33.820Z,23.19
2023-03-17T15:28:00.927Z,23.01
2023-03-17T15:30:37.422Z,22.83
2023-03-17T15:33:28.337Z,22.63
2023-03-17T15:35:57.239Z,22.44
2023-03-17T15:38:25.145Z,22.30
2023-03-17T15:40:52.961Z,22.15
2023-03-17T15:43:22.232Z,22.04
2023-03-17T15:46:04.436Z,21.93
2023-03-17T15:48:39.236Z,21.79
2023-03-17T15:51:08.007Z,21.67
2023-03-17T15:53:35.955Z,21.52
2023-03-17T15:56:04.160Z,21.41
2023-03-17T15:58:31.715Z,21.31
2023-03-17T16:00:59.941Z,21.27
2023-03-17T16:03:35.054Z,21.21
2023-03-17T16:06:05.712Z,21.17
2023-03-17T16:08:34.024Z,21.34
2023-03-17T16:11:01.677Z,21.28
2023-03-17T16:13:29.591Z,21.16
2023-03-17T16:16:01.385Z,21.05
2023-03-17T16:18:36.421Z,20.94
2023-03-17T16:21:05.576Z,20.82
2023-03-17T16:23:37.138Z,20.72
2023-03-17T16:26:14.695Z,20.65
2023-03-17T16:28:46.413Z,20.58
2023-03-17T16:31:34.809Z,20.51
2023-03-17T16:34:02.487Z,20.44
2023-03-17T16:36:30.180Z,20.38
2023-03-17T16:38:57.514Z,20.32
2023-03-17T16:41:27.469Z,20.21
2023-03-17T16:44:01.782Z,20.12
2023-03-17T16:46:35.505Z,20.07
2023-03-17T16:49:04.499Z,20.00
2023-03-17T16:51:32.278Z,19.94
2023-03-17T16:53:59.530Z,19.88
2023-03-17T16:56:28.994Z,19.81
2023-03-17T16:58:57.071Z,19.77
2023-03-17T17:01:28.260Z,19.73
2023-03-17T17:03:57.017Z,19.66
2023-03-17T17:06:25.269Z,19.62
2023-03-17T17:08:53.384Z,19.58
2023-03-17T17:11:21.289Z,19.54
2023-03-17T17:13:50.095Z,19.47
2023-03-17T17:16:32.340Z,19.40
2023-03-17T17:19:01.378Z,19.33
2023-03-17T17:21:30.111Z,19.29
2023-03-17T17:23:59.721Z,19.27
2023-03-17T17:26:27.214Z,19.23
2023-03-17T17:28:54.614Z,19.20
2023-03-17T17:31:22.044Z,19.17
2023-03-17T17:33:49.456Z,19.13
2023-03-17T17:36:18.226Z,19.07
2023-03-17T17:38:46.256Z,18.97
2023-03-17T17:41:15.195Z,18.89
2023-03-17T17:43:43.023Z,18.81
2023-03-17T17:46:22.398Z,18.74
2023-03-17T17:48:50.356Z,18.65
2023-03-17T17:51:20.215Z,18.58
2023-03-17T17:53:48.047Z,18.53
2023-03-17T17:56:22.197Z,18.49
2023-03-17T17:58:50.710Z,18.42
2023-03-17T18:01:22.336Z,18.77
2023-03-17T18:03:50.125Z,18.61
2023-03-17T18:06:18.140Z,18.42
2023-03-17T18:08:46.110Z,18.29
2023-03-17T18:11:13.550Z,18.18
2023-03-17T18:13:40.940Z,18.12
2023-03-17T18:16:09.939Z,18.08
2023-03-17T18:18:40.457Z,18.02
2023-03-17T18:21:08.151Z,17.97
2023-03-17T18:23:36.439Z,17.94
2023-03-17T18:26:06.344Z,17.89
2023-03-17T18:28:34.706Z,17.85
2023-03-17T18:31:20.997Z,17.78
2023-03-17T18:33:51.360Z,17.72
2023-03-17T18:36:20.022Z,17.67
2023-03-17T18:38:46.968Z,17.63
2023-03-17T18:41:17.259Z,17.62
2023-03-17T18:43:48.088Z,17.59
2023-03-17T18:46:16.702Z,17.58
2023-03-17T18:51:57.756Z,17.53
2023-03-17T18:54:29.109Z,17.53
2023-03-17T18:57:05.787Z,17.51
2023-03-17T18:59:36.540Z,17.50
2023-03-17T19:02:04.217Z,17.49
2023-03-17T19:04:32.185Z,17.49
2023-03-17T19:06:59.967Z,17.49
2023-03-17T19:09:28.082Z,17.48
2023-03-17T19:11:54.970Z,17.47
2023-03-17T19:14:22.495Z,17.47
2023-03-17T19:16:50.020Z,17.46
2023-03-17T19:19:17.843Z,17.46
2023-03-17T19:21:47.781Z,17.48
2023-03-17T19:24:17.616Z,17.47
2023-03-17T19:26:44.454Z,17.49
2023-03-17T19:29:12.584Z,17.50
2023-03-17T19:31:41.868Z,17.52
2023-03-17T19:34:12.678Z,17.53
2023-03-17T19:36:43.516Z,17.56
2023-03-17T19:39:12.132Z,17.57
2023-03-17T19:41:39.762Z,17.58
2023-03-17T19:44:09.820Z,17.60
2023-03-17T19:46:38.423Z,17.63
2023-03-17T19:49:06.817Z,17.66
2023-03-17T19:51:34.406Z,17.67
2023-03-17T19:54:02.317Z,17.70
2023-03-17T19:56:29.957Z,17.72
2023-03-17T19:58:57.753Z,17.73
2023-03-17T20:01:26.442Z,17.74
2023-03-17T20:03:54.234Z,17.76
2023-03-17T20:06:21.921Z,17.75
2023-03-17T20:08:49.985Z,17.75
2023-03-17T20:11:20.020Z,17.77
2023-03-17T20:13:47.928Z,17.79
2023-03-17T20:16:16.846Z,17.80
2023-03-17T20:18:44.220Z,17.80
2023-03-17T20:21:14.526Z,17.81
2023-03-17T20:23:41.875Z,17.82
2023-03-17T20:26:09.626Z,17.83
2023-03-17T20:28:38.911Z,17.85
2023-03-17T20:31:08.266Z,17.85
2023-03-17T20:33:36.323Z,17.86
2023-03-17T20:36:05.443Z,17.85
2023-03-17T20:38:38.083Z,17.85
2023-03-17T20:41:16.298Z,17.85
2023-03-17T20:43:47.412Z,17.86
2023-03-17T20:46:22.063Z,17.86
2023-03-17T20:48:51.874Z,17.85
2023-03-17T20:51:20.448Z,17.86
2023-03-17T20:53:50.530Z,17.87
2023-03-17T20:56:22.782Z,17.87
2023-03-17T20:58:53.696Z,17.87
2023-03-17T21:01:36.886Z,17.88
2023-03-17T21:04:09.367Z,17.88
2023-03-17T21:06:39.066Z,17.87
2023-03-17T21:09:07.006Z,17.86
2023-03-17T21:11:35.296Z,17.87
2023-03-17T21:14:04.546Z,17.85
2023-03-17T21:16:32.147Z,17.86
2023-03-17T21:19:00.229Z,17.86
2023-03-17T21:21:28.197Z,17.83
2023-03-17T21:23:56.691Z,17.82
2023-03-17T21:26:25.157Z,17.81
2023-03-17T21:28:52.739Z,17.78
2023-03-17T21:31:22.120Z,17.78
2023-03-17T21:33:50.902Z,17.76
2023-03-17T21:36:21.352Z,17.75
2023-03-17T21:38:48.843Z,17.74
2023-03-17T21:41:36.156Z,17.74
2023-03-17T21:44:05.576Z,17.74
2023-03-17T21:46:33.922Z,17.71
2023-03-17T21:49:02.220Z,17.69
2023-03-17T21:51:30.709Z,17.68
2023-03-17T21:53:58.263Z,17.67
2023-03-17T21:56:26.001Z,17.67
2023-03-17T21:58:56.452Z,17.66
2023-03-17T22:01:30.502Z,17.64
2023-03-17T22:04:00.068Z,17.63
2023-03-17T22:06:52.423Z,17.62
2023-03-17T22:09:21.023Z,17.58
2023-03-17T22:11:47.951Z,17.57
2023-03-17T22:14:23.675Z,17.61
2023-03-17T22:16:51.159Z,17.61
2023-03-17T22:19:32.584Z,17.58
2023-03-17T22:22:00.768Z,17.55
2023-03-17T22:24:28.438Z,17.54
2023-03-17T22:26:59.730Z,17.51
2023-03-17T22:29:27.366Z,17.49
2023-03-17T22:31:55.339Z,17.46
2023-03-17T22:34:23.736Z,17.44
2023-03-17T22:36:52.536Z,17.41
2023-03-17T22:39:20.341Z,17.39
2023-03-17T22:41:49.398Z,17.38
2023-03-17T22:44:18.047Z,17.36
2023-03-17T22:46:46.584Z,17.33
2023-03-17T22:49:14.173Z,17.33
2023-03-17T22:54:19.211Z,17.30
2023-03-17T22:59:34.272Z,17.23
2023-03-17T23:02:09.715Z,17.23
2023-03-17T23:04:38.433Z,17.20
2023-03-17T23:07:06.744Z,17.20
2023-03-17T23:09:34.986Z,17.19
2023-03-17T23:12:03.028Z,17.18
2023-03-17T23:14:30.788Z,17.16
2023-03-17T23:16:58.753Z,17.15
2023-03-17T23:22:08.246Z,17.09
2023-03-17T23:24:36.084Z,17.07
2023-03-17T23:27:04.096Z,17.05
2023-03-17T23:29:35.692Z,17.00
2023-03-17T23:32:15.034Z,16.97
2023-03-17T23:34:42.684Z,16.92
2023-03-17T23:37:27.385Z,16.89
2023-03-17T23:39:55.369Z,16.84
2023-03-17T23:45:05.683Z,16.75
2023-03-17T23:47:33.990Z,16.71
2023-03-17T23:50:04.413Z,16.67
2023-03-17T23:52:45.047Z,16.62
2023-03-17T23:55:14.726Z,16.56
2023-03-17T23:57:42.397Z,16.52
